sensor_id;sensor_type;location;lat;lon;timestamp;temperature;humidity
1578;DHT22;57623;53.608;10.004;2023-05-07T00:01:33;9.50;99.90
1578;DHT22;57623;53.608;10.004;2023-05-07T00:04:02;9.60;99.90
1578;DHT22;57623;53.608;10.004;2023-05-07T00:06:31;9.50;99.90
1578;DHT22;57623;53.608;10.004;2023-05-07T00:09:00;9.50;99.90
1578;DHT22;57623;53.608;10.004;2023-05-07T00:11:29;9.50;99.90
1578;DHT22;57623;53.608;10.004;2023-05-07T00:13:57;9.50;99.90
1578;DHT22;57623;53.608;10.004;2023-05-07T00:16:25;9.40;99.90
1578;DHT22;57623;53.608;10.004;2023-05-07T00:18:53;9.40;99.90
1578;DHT22;57623;53.608;10.004;2023-05-07T00:21:21;9.40;99.90
1578;DHT22;57623;53.608;10.004;2023-05-07T00:23:53;9.40;99.90
1578;DHT22;57623;53.608;10.004;2023-05-07T00:26:21;9.40;99.90
1578;DHT22;57623;53.608;10.004;2023-05-07T00:28:50;9.40;99.90
1578;DHT22;57623;53.608;10.004;2023-05-07T00:31:18;9.40;99.90
1578;DHT22;57623;53.608;10.004;2023-05-07T00:33:46;9.40;99.90
1578;DHT22;57623;53.608;10.004;2023-05-07T00:36:14;9.30;99.90
1578;DHT22;57623;53.608;10.004;2023-05-07T00:38:42;9.40;99.90
1578;DHT22;57623;53.608;10.004;2023-05-07T00:41:10;9.40;99.90
1578;DHT22;57623;53.608;10.004;2023-05-07T00:43:38;9.40;99.90
1578;DHT22;57623;53.608;10.004;2023-05-07T00:46:07;9.50;99.90
1578;DHT22;57623;53.608;10.004;2023-05-07T00:48:35;9.50;99.90
1578;DHT22;57623;53.608;10.004;2023-05-07T00:51:04;9.50;99.90
1578;DHT22;57623;53.608;10.004;2023-05-07T00:53:32;9.50;99.90
1578;DHT22;57623;53.608;10.004;2023-05-07T00:56:00;9.40;99.90
1578;DHT22;57623;53.608;10.004;2023-05-07T00:58:35;9.40;99.90
1578;DHT22;57623;53.608;10.004;2023-05-07T01:01:03;9.40;99.90
1578;DHT22;57623;53.608;10.004;2023-05-07T01:03:32;9.40;99.90
1578;DHT22;57623;53.608;10.004;2023-05-07T01:06:01;9.40;99.90
1578;DHT22;57623;53.608;10.004;2023-05-07T01:08:31;9.40;99.90
1578;DHT22;57623;53.608;10.004;2023-05-07T01:11:01;9.40;99.90
1578;DHT22;57623;53.608;10.004;2023-05-07T01:13:30;9.40;99.90
1578;DHT22;57623;53.608;10.004;2023-05-07T01:15:59;9.40;99.90
1578;DHT22;57623;53.608;10.004;2023-05-07T01:18:27;9.40;99.90
1578;DHT22;57623;53.608;10.004;2023-05-07T01:20:58;9.40;99.90
1578;DHT22;57623;53.608;10.004;2023-05-07T01:23:28;9.30;99.90
1578;DHT22;57623;53.608;10.004;2023-05-07T01:25:57;9.40;99.90
1578;DHT22;57623;53.608;10.004;2023-05-07T01:28:25;9.40;99.90
1578;DHT22;57623;53.608;10.004;2023-05-07T01:30:55;9.40;99.90
1578;DHT22;57623;53.608;10.004;2023-05-07T01:33:25;9.40;99.90
1578;DHT22;57623;53.608;10.004;2023-05-07T01:35:54;9.40;99.90
1578;DHT22;57623;53.608;10.004;2023-05-07T01:38:23;9.40;99.90
1578;DHT22;57623;53.608;10.004;2023-05-07T01:40:52;9.40;99.90
1578;DHT22;57623;53.608;10.004;2023-05-07T01:43:21;9.40;99.90
1578;DHT22;57623;53.608;10.004;2023-05-07T01:45:49;9.50;99.90
1578;DHT22;57623;53.608;10.004;2023-05-07T01:48:18;9.50;99.90
1578;DHT22;57623;53.608;10.004;2023-05-07T01:50:46;9.50;99.90
1578;DHT22;57623;53.608;10.004;2023-05-07T01:53:15;9.40;99.90
1578;DHT22;57623;53.608;10.004;2023-05-07T01:55:43;9.40;99.90
1578;DHT22;57623;53.608;10.004;2023-05-07T01:58:13;9.40;99.90
1578;DHT22;57623;53.608;10.004;2023-05-07T02:00:42;9.40;99.90
1578;DHT22;57623;53.608;10.004;2023-05-07T02:03:10;9.40;99.90
1578;DHT22;57623;53.608;10.004;2023-05-07T02:05:38;9.40;99.90
1578;DHT22;57623;53.608;10.004;2023-05-07T02:08:06;9.40;99.90
1578;DHT22;57623;53.608;10.004;2023-05-07T02:10:34;9.40;99.90
1578;DHT22;57623;53.608;10.004;2023-05-07T02:13:02;9.40;99.90
1578;DHT22;57623;53.608;10.004;2023-05-07T02:15:32;9.40;99.90
1578;DHT22;57623;53.608;10.004;2023-05-07T02:18:01;9.40;99.90
1578;DHT22;57623;53.608;10.004;2023-05-07T02:20:29;9.40;99.90
1578;DHT22;57623;53.608;10.004;2023-05-07T02:22:57;9.40;99.90
1578;DHT22;57623;53.608;10.004;2023-05-07T02:25:26;9.40;99.90
1578;DHT22;57623;53.608;10.004;2023-05-07T02:27:53;9.40;99.90
1578;DHT22;57623;53.608;10.004;2023-05-07T02:30:21;9.40;99.90
1578;DHT22;57623;53.608;10.004;2023-05-07T02:32:52;9.40;99.90
1578;DHT22;57623;53.608;10.004;2023-05-07T02:35:20;9.40;99.90
1578;DHT22;57623;53.608;10.004;2023-05-07T02:37:47;9.40;99.90
1578;DHT22;57623;53.608;10.004;2023-05-07T02:40:15;9.40;99.90
1578;DHT22;57623;53.608;10.004;2023-05-07T02:42:43;9.40;99.90
1578;DHT22;57623;53.608;10.004;2023-05-07T02:45:11;9.40;99.90
1578;DHT22;57623;53.608;10.004;2023-05-07T02:47:39;9.30;99.90
1578;DHT22;57623;53.608;10.004;2023-05-07T02:50:09;9.30;99.90
1578;DHT22;57623;53.608;10.004;2023-05-07T02:52:38;9.30;99.90
1578;DHT22;57623;53.608;10.004;2023-05-07T02:55:06;9.40;99.90
1578;DHT22;57623;53.608;10.004;2023-05-07T02:57:35;9.30;99.90
1578;DHT22;57623;53.608;10.004;2023-05-07T03:00:11;9.30;99.90
1578;DHT22;57623;53.608;10.004;2023-05-07T03:02:39;9.30;99.90
1578;DHT22;57623;53.608;10.004;2023-05-07T03:05:08;9.30;99.90
1578;DHT22;57623;53.608;10.004;2023-05-07T03:07:37;9.30;99.90
1578;DHT22;57623;53.608;10.004;2023-05-07T03:10:06;9.30;99.90
1578;DHT22;57623;53.608;10.004;2023-05-07T03:12:34;9.30;99.90
1578;DHT22;57623;53.608;10.004;2023-05-07T03:15:03;9.30;99.90
1578;DHT22;57623;53.608;10.004;2023-05-07T03:17:31;9.30;99.90
1578;DHT22;57623;53.608;10.004;2023-05-07T03:19:59;9.30;99.90
1578;DHT22;57623;53.608;10.004;2023-05-07T03:22:28;9.30;99.90
1578;DHT22;57623;53.608;10.004;2023-05-07T03:24:56;9.30;99.90
1578;DHT22;57623;53.608;10.004;2023-05-07T03:27:24;9.30;99.90
1578;DHT22;57623;53.608;10.004;2023-05-07T03:29:52;9.30;99.90
1578;DHT22;57623;53.608;10.004;2023-05-07T03:32:20;9.30;99.90
1578;DHT22;57623;53.608;10.004;2023-05-07T03:34:48;9.30;99.90
1578;DHT22;57623;53.608;10.004;2023-05-07T03:37:16;9.30;99.90
1578;DHT22;57623;53.608;10.004;2023-05-07T03:39:45;9.30;99.90
1578;DHT22;57623;53.608;10.004;2023-05-07T03:42:15;9.30;99.90
1578;DHT22;57623;53.608;10.004;2023-05-07T03:44:43;9.30;99.90
1578;DHT22;57623;53.608;10.004;2023-05-07T03:47:13;9.30;99.90
1578;DHT22;57623;53.608;10.004;2023-05-07T03:49:41;9.30;99.90
1578;DHT22;57623;53.608;10.004;2023-05-07T03:52:09;9.30;99.90
1578;DHT22;57623;53.608;10.004;2023-05-07T03:54:37;9.30;99.90
1578;DHT22;57623;53.608;10.004;2023-05-07T03:57:06;9.30;99.90
1578;DHT22;57623;53.608;10.004;2023-05-07T03:59:34;9.30;99.90
1578;DHT22;57623;53.608;10.004;2023-05-07T04:02:02;9.30;99.90
1578;DHT22;57623;53.608;10.004;2023-05-07T04:04:31;9.30;99.90
1578;DHT22;57623;53.608;10.004;2023-05-07T04:06:59;9.30;99.90
1578;DHT22;57623;53.608;10.004;2023-05-07T04:09:28;9.20;99.90
1578;DHT22;57623;53.608;10.004;2023-05-07T04:11:56;9.20;99.90
1578;DHT22;57623;53.608;10.004;2023-05-07T04:14:25;9.30;99.90
1578;DHT22;57623;53.608;10.004;2023-05-07T04:16:53;9.30;99.90
1578;DHT22;57623;53.608;10.004;2023-05-07T04:19:21;9.30;99.90
1578;DHT22;57623;53.608;10.004;2023-05-07T04:21:49;9.30;99.90
1578;DHT22;57623;53.608;10.004;2023-05-07T04:24:17;9.30;99.90
1578;DHT22;57623;53.608;10.004;2023-05-07T04:26:45;9.40;99.90
1578;DHT22;57623;53.608;10.004;2023-05-07T04:29:13;9.30;99.90
1578;DHT22;57623;53.608;10.004;2023-05-07T04:31:43;9.40;99.90
1578;DHT22;57623;53.608;10.004;2023-05-07T04:34:11;9.40;99.90
1578;DHT22;57623;53.608;10.004;2023-05-07T04:36:39;9.40;99.90
1578;DHT22;57623;53.608;10.004;2023-05-07T04:39:07;9.40;99.90
1578;DHT22;57623;53.608;10.004;2023-05-07T04:41:37;9.30;99.90
1578;DHT22;57623;53.608;10.004;2023-05-07T04:44:05;9.40;99.90
1578;DHT22;57623;53.608;10.004;2023-05-07T04:46:33;9.40;99.90
1578;DHT22;57623;53.608;10.004;2023-05-07T04:49:03;9.40;99.90
1578;DHT22;57623;53.608;10.004;2023-05-07T04:51:30;9.40;99.90
1578;DHT22;57623;53.608;10.004;2023-05-07T04:53:59;9.40;99.90
1578;DHT22;57623;53.608;10.004;2023-05-07T04:56:27;9.40;99.90
1578;DHT22;57623;53.608;10.004;2023-05-07T04:58:56;9.40;99.90
1578;DHT22;57623;53.608;10.004;2023-05-07T05:01:24;9.40;99.90
1578;DHT22;57623;53.608;10.004;2023-05-07T05:03:52;9.50;99.90
1578;DHT22;57623;53.608;10.004;2023-05-07T05:06:21;9.50;99.90
1578;DHT22;57623;53.608;10.004;2023-05-07T05:08:49;9.50;99.90
1578;DHT22;57623;53.608;10.004;2023-05-07T05:11:17;9.50;99.90
1578;DHT22;57623;53.608;10.004;2023-05-07T05:13:45;9.50;99.90
1578;DHT22;57623;53.608;10.004;2023-05-07T05:16:15;9.50;99.90
1578;DHT22;57623;53.608;10.004;2023-05-07T05:18:43;9.50;99.90
1578;DHT22;57623;53.608;10.004;2023-05-07T05:21:11;9.50;99.90
1578;DHT22;57623;53.608;10.004;2023-05-07T05:23:41;9.50;99.90
1578;DHT22;57623;53.608;10.004;2023-05-07T05:26:09;9.50;99.90
1578;DHT22;57623;53.608;10.004;2023-05-07T05:28:36;9.50;99.90
1578;DHT22;57623;53.608;10.004;2023-05-07T05:31:05;9.60;99.90
1578;DHT22;57623;53.608;10.004;2023-05-07T05:33:33;9.60;99.90
1578;DHT22;57623;53.608;10.004;2023-05-07T05:36:01;9.60;99.90
1578;DHT22;57623;53.608;10.004;2023-05-07T05:38:29;9.60;99.90
1578;DHT22;57623;53.608;10.004;2023-05-07T05:40:58;9.60;99.90
1578;DHT22;57623;53.608;10.004;2023-05-07T05:43:26;9.60;99.90
1578;DHT22;57623;53.608;10.004;2023-05-07T05:45:55;9.60;99.90
1578;DHT22;57623;53.608;10.004;2023-05-07T05:48:23;9.60;99.90
1578;DHT22;57623;53.608;10.004;2023-05-07T05:50:51;9.70;99.90
1578;DHT22;57623;53.608;10.004;2023-05-07T05:53:19;9.70;99.90
1578;DHT22;57623;53.608;10.004;2023-05-07T05:55:47;9.70;99.90
1578;DHT22;57623;53.608;10.004;2023-05-07T05:58:17;9.70;99.90
1578;DHT22;57623;53.608;10.004;2023-05-07T06:00:46;9.70;99.90
1578;DHT22;57623;53.608;10.004;2023-05-07T06:03:15;9.70;99.90
1578;DHT22;57623;53.608;10.004;2023-05-07T06:05:45;9.70;99.90
1578;DHT22;57623;53.608;10.004;2023-05-07T06:08:13;9.70;99.90
1578;DHT22;57623;53.608;10.004;2023-05-07T06:10:41;9.70;99.90
1578;DHT22;57623;53.608;10.004;2023-05-07T06:13:09;9.70;99.90
1578;DHT22;57623;53.608;10.004;2023-05-07T06:15:38;9.80;99.90
1578;DHT22;57623;53.608;10.004;2023-05-07T06:18:06;9.80;99.90
1578;DHT22;57623;53.608;10.004;2023-05-07T06:20:34;9.80;99.90
1578;DHT22;57623;53.608;10.004;2023-05-07T06:23:02;9.80;99.90
1578;DHT22;57623;53.608;10.004;2023-05-07T06:25:30;9.80;99.90
1578;DHT22;57623;53.608;10.004;2023-05-07T06:27:58;9.80;99.90
1578;DHT22;57623;53.608;10.004;2023-05-07T06:30:26;9.80;99.90
1578;DHT22;57623;53.608;10.004;2023-05-07T06:32:55;9.80;99.90
1578;DHT22;57623;53.608;10.004;2023-05-07T06:35:23;9.80;99.90
1578;DHT22;57623;53.608;10.004;2023-05-07T06:37:51;9.80;99.90
1578;DHT22;57623;53.608;10.004;2023-05-07T06:40:19;9.80;99.90
1578;DHT22;57623;53.608;10.004;2023-05-07T06:42:47;9.80;99.90
1578;DHT22;57623;53.608;10.004;2023-05-07T06:45:15;9.90;99.90
1578;DHT22;57623;53.608;10.004;2023-05-07T06:47:43;9.90;99.90
1578;DHT22;57623;53.608;10.004;2023-05-07T06:50:14;9.90;99.90
1578;DHT22;57623;53.608;10.004;2023-05-07T06:52:43;9.90;99.90
1578;DHT22;57623;53.608;10.004;2023-05-07T06:55:11;9.90;99.90
1578;DHT22;57623;53.608;10.004;2023-05-07T06:57:39;10.00;99.90
1578;DHT22;57623;53.608;10.004;2023-05-07T07:00:08;10.00;99.90
1578;DHT22;57623;53.608;10.004;2023-05-07T07:02:37;10.00;99.90
1578;DHT22;57623;53.608;10.004;2023-05-07T07:05:06;10.00;99.90
1578;DHT22;57623;53.608;10.004;2023-05-07T07:07:35;10.00;99.90
1578;DHT22;57623;53.608;10.004;2023-05-07T07:10:04;10.10;99.90
1578;DHT22;57623;53.608;10.004;2023-05-07T07:12:32;10.10;99.90
1578;DHT22;57623;53.608;10.004;2023-05-07T07:15:00;10.10;99.90
1578;DHT22;57623;53.608;10.004;2023-05-07T07:17:29;10.20;99.90
1578;DHT22;57623;53.608;10.004;2023-05-07T07:19:57;10.20;99.90
1578;DHT22;57623;53.608;10.004;2023-05-07T07:22:24;10.20;99.90
1578;DHT22;57623;53.608;10.004;2023-05-07T07:24:54;10.30;99.90
1578;DHT22;57623;53.608;10.004;2023-05-07T07:27:22;10.30;99.90
1578;DHT22;57623;53.608;10.004;2023-05-07T07:29:50;10.40;99.90
1578;DHT22;57623;53.608;10.004;2023-05-07T07:32:18;10.40;99.90
1578;DHT22;57623;53.608;10.004;2023-05-07T07:34:46;10.40;99.90
1578;DHT22;57623;53.608;10.004;2023-05-07T07:37:14;10.50;99.90
1578;DHT22;57623;53.608;10.004;2023-05-07T07:39:42;10.50;99.90
1578;DHT22;57623;53.608;10.004;2023-05-07T07:42:11;10.50;99.90
1578;DHT22;57623;53.608;10.004;2023-05-07T07:44:39;10.50;99.90
1578;DHT22;57623;53.608;10.004;2023-05-07T07:47:07;10.50;99.90
1578;DHT22;57623;53.608;10.004;2023-05-07T07:49:35;10.50;99.90
1578;DHT22;57623;53.608;10.004;2023-05-07T07:52:04;10.60;99.90
1578;DHT22;57623;53.608;10.004;2023-05-07T07:54:32;10.60;99.90
1578;DHT22;57623;53.608;10.004;2023-05-07T07:57:00;10.60;99.90
1578;DHT22;57623;53.608;10.004;2023-05-07T07:59:29;10.70;99.90
1578;DHT22;57623;53.608;10.004;2023-05-07T08:02:00;10.70;99.90
1578;DHT22;57623;53.608;10.004;2023-05-07T08:04:28;10.70;99.90
1578;DHT22;57623;53.608;10.004;2023-05-07T08:06:57;10.70;99.90
1578;DHT22;57623;53.608;10.004;2023-05-07T08:09:25;10.80;99.90
1578;DHT22;57623;53.608;10.004;2023-05-07T08:11:53;10.80;99.90
1578;DHT22;57623;53.608;10.004;2023-05-07T08:14:21;10.90;99.90
1578;DHT22;57623;53.608;10.004;2023-05-07T08:16:50;10.90;99.90
1578;DHT22;57623;53.608;10.004;2023-05-07T08:19:19;10.90;99.90
1578;DHT22;57623;53.608;10.004;2023-05-07T08:21:48;10.90;99.90
1578;DHT22;57623;53.608;10.004;2023-05-07T08:24:17;10.90;99.90
1578;DHT22;57623;53.608;10.004;2023-05-07T08:26:45;10.90;99.90
1578;DHT22;57623;53.608;10.004;2023-05-07T08:29:13;10.90;99.90
1578;DHT22;57623;53.608;10.004;2023-05-07T08:31:41;11.00;99.90
1578;DHT22;57623;53.608;10.004;2023-05-07T08:34:17;11.00;99.90
1578;DHT22;57623;53.608;10.004;2023-05-07T08:36:45;11.00;99.90
1578;DHT22;57623;53.608;10.004;2023-05-07T08:39:15;11.10;99.90
1578;DHT22;57623;53.608;10.004;2023-05-07T08:41:44;11.10;99.90
1578;DHT22;57623;53.608;10.004;2023-05-07T08:44:13;11.10;99.90
1578;DHT22;57623;53.608;10.004;2023-05-07T08:46:42;11.10;99.90
1578;DHT22;57623;53.608;10.004;2023-05-07T08:49:16;11.20;99.90
1578;DHT22;57623;53.608;10.004;2023-05-07T08:51:44;11.20;99.90
1578;DHT22;57623;53.608;10.004;2023-05-07T08:54:15;11.20;99.90
1578;DHT22;57623;53.608;10.004;2023-05-07T08:56:44;11.20;99.90
1578;DHT22;57623;53.608;10.004;2023-05-07T08:59:13;11.20;99.90
1578;DHT22;57623;53.608;10.004;2023-05-07T09:01:41;11.30;99.90
1578;DHT22;57623;53.608;10.004;2023-05-07T09:04:09;11.20;99.90
1578;DHT22;57623;53.608;10.004;2023-05-07T09:06:40;11.30;99.90
1578;DHT22;57623;53.608;10.004;2023-05-07T09:09:08;11.30;99.90
1578;DHT22;57623;53.608;10.004;2023-05-07T09:11:37;11.30;99.90
1578;DHT22;57623;53.608;10.004;2023-05-07T09:14:05;11.40;99.90
1578;DHT22;57623;53.608;10.004;2023-05-07T09:16:35;11.40;99.90
1578;DHT22;57623;53.608;10.004;2023-05-07T09:19:03;11.40;99.90
1578;DHT22;57623;53.608;10.004;2023-05-07T09:21:31;11.40;99.90
1578;DHT22;57623;53.608;10.004;2023-05-07T09:24:00;11.30;99.90
1578;DHT22;57623;53.608;10.004;2023-05-07T09:26:28;11.40;99.90
1578;DHT22;57623;53.608;10.004;2023-05-07T09:28:57;11.40;99.90
1578;DHT22;57623;53.608;10.004;2023-05-07T09:31:25;11.40;99.90
1578;DHT22;57623;53.608;10.004;2023-05-07T09:33:53;11.40;99.90
1578;DHT22;57623;53.608;10.004;2023-05-07T09:36:22;11.50;99.90
1578;DHT22;57623;53.608;10.004;2023-05-07T09:38:51;11.50;99.90
1578;DHT22;57623;53.608;10.004;2023-05-07T09:41:20;11.60;99.90
1578;DHT22;57623;53.608;10.004;2023-05-07T09:43:53;11.60;99.90
1578;DHT22;57623;53.608;10.004;2023-05-07T09:46:27;11.60;99.90
1578;DHT22;57623;53.608;10.004;2023-05-07T09:48:57;11.70;99.90
1578;DHT22;57623;53.608;10.004;2023-05-07T09:51:29;11.70;99.90
1578;DHT22;57623;53.608;10.004;2023-05-07T09:53:58;11.80;99.90
1578;DHT22;57623;53.608;10.004;2023-05-07T09:56:29;11.80;99.90
1578;DHT22;57623;53.608;10.004;2023-05-07T09:59:00;11.90;99.90
1578;DHT22;57623;53.608;10.004;2023-05-07T10:01:29;11.90;99.90
1578;DHT22;57623;53.608;10.004;2023-05-07T10:03:59;12.00;99.90
1578;DHT22;57623;53.608;10.004;2023-05-07T10:06:27;12.00;99.90
1578;DHT22;57623;53.608;10.004;2023-05-07T10:08:57;12.00;99.90
1578;DHT22;57623;53.608;10.004;2023-05-07T10:11:26;12.00;99.90
1578;DHT22;57623;53.608;10.004;2023-05-07T10:13:56;12.10;99.90
1578;DHT22;57623;53.608;10.004;2023-05-07T10:16:25;12.10;99.90
1578;DHT22;57623;53.608;10.004;2023-05-07T10:18:54;12.20;99.90
1578;DHT22;57623;53.608;10.004;2023-05-07T10:21:23;12.20;99.90
1578;DHT22;57623;53.608;10.004;2023-05-07T10:23:58;12.20;99.90
1578;DHT22;57623;53.608;10.004;2023-05-07T10:26:28;12.20;99.90
1578;DHT22;57623;53.608;10.004;2023-05-07T10:29:02;12.20;99.90
1578;DHT22;57623;53.608;10.004;2023-05-07T10:31:54;12.10;99.90
1578;DHT22;57623;53.608;10.004;2023-05-07T10:34:25;12.20;99.90
1578;DHT22;57623;53.608;10.004;2023-05-07T10:36:55;12.10;99.90
1578;DHT22;57623;53.608;10.004;2023-05-07T10:39:24;12.20;99.90
1578;DHT22;57623;53.608;10.004;2023-05-07T10:41:52;12.20;99.90
1578;DHT22;57623;53.608;10.004;2023-05-07T10:44:29;12.20;99.90
1578;DHT22;57623;53.608;10.004;2023-05-07T10:47:06;12.20;99.90
1578;DHT22;57623;53.608;10.004;2023-05-07T10:49:37;12.20;99.90
1578;DHT22;57623;53.608;10.004;2023-05-07T10:52:25;12.20;99.90
1578;DHT22;57623;53.608;10.004;2023-05-07T10:55:21;12.20;99.90
1578;DHT22;57623;53.608;10.004;2023-05-07T10:57:51;12.20;99.90
1578;DHT22;57623;53.608;10.004;2023-05-07T11:00:44;12.30;99.90
1578;DHT22;57623;53.608;10.004;2023-05-07T11:03:12;12.30;99.90
1578;DHT22;57623;53.608;10.004;2023-05-07T11:05:42;12.40;99.90
1578;DHT22;57623;53.608;10.004;2023-05-07T11:08:10;12.50;99.90
1578;DHT22;57623;53.608;10.004;2023-05-07T11:10:52;12.60;99.90
1578;DHT22;57623;53.608;10.004;2023-05-07T11:13:41;12.60;99.90
1578;DHT22;57623;53.608;10.004;2023-05-07T11:16:18;12.80;99.90
1578;DHT22;57623;53.608;10.004;2023-05-07T11:18:47;12.80;99.90
1578;DHT22;57623;53.608;10.004;2023-05-07T11:21:31;12.90;99.90
1578;DHT22;57623;53.608;10.004;2023-05-07T11:24:00;13.00;99.90
1578;DHT22;57623;53.608;10.004;2023-05-07T11:26:30;13.10;99.90
1578;DHT22;57623;53.608;10.004;2023-05-07T11:28:59;13.20;99.90
1578;DHT22;57623;53.608;10.004;2023-05-07T11:31:29;13.20;99.90
1578;DHT22;57623;53.608;10.004;2023-05-07T11:33:58;13.30;99.90
1578;DHT22;57623;53.608;10.004;2023-05-07T11:36:32;13.40;99.90
1578;DHT22;57623;53.608;10.004;2023-05-07T11:39:00;13.60;99.90
1578;DHT22;57623;53.608;10.004;2023-05-07T11:41:35;13.70;99.90
1578;DHT22;57623;53.608;10.004;2023-05-07T11:44:04;13.80;99.90
1578;DHT22;57623;53.608;10.004;2023-05-07T11:46:33;13.90;99.90
1578;DHT22;57623;53.608;10.004;2023-05-07T11:49:01;14.00;99.90
1578;DHT22;57623;53.608;10.004;2023-05-07T11:51:30;14.10;99.90
1578;DHT22;57623;53.608;10.004;2023-05-07T11:53:58;14.10;99.90
1578;DHT22;57623;53.608;10.004;2023-05-07T11:56:26;14.20;99.90
1578;DHT22;57623;53.608;10.004;2023-05-07T11:58:54;14.20;99.90
1578;DHT22;57623;53.608;10.004;2023-05-07T12:01:22;14.20;99.90
1578;DHT22;57623;53.608;10.004;2023-05-07T12:03:51;14.30;99.90
1578;DHT22;57623;53.608;10.004;2023-05-07T12:06:19;14.30;99.90
1578;DHT22;57623;53.608;10.004;2023-05-07T12:08:47;14.30;99.90
1578;DHT22;57623;53.608;10.004;2023-05-07T12:11:21;14.40;99.90
1578;DHT22;57623;53.608;10.004;2023-05-07T12:13:49;14.40;99.90
1578;DHT22;57623;53.608;10.004;2023-05-07T12:16:18;14.50;99.90
1578;DHT22;57623;53.608;10.004;2023-05-07T12:18:47;14.60;99.90
1578;DHT22;57623;53.608;10.004;2023-05-07T12:21:16;14.70;99.90
1578;DHT22;57623;53.608;10.004;2023-05-07T12:23:45;14.70;99.90
1578;DHT22;57623;53.608;10.004;2023-05-07T12:26:13;14.70;99.90
1578;DHT22;57623;53.608;10.004;2023-05-07T12:28:41;14.70;99.90
1578;DHT22;57623;53.608;10.004;2023-05-07T12:31:09;14.70;99.90
1578;DHT22;57623;53.608;10.004;2023-05-07T12:33:37;14.70;99.90
1578;DHT22;57623;53.608;10.004;2023-05-07T12:36:07;14.70;99.90
1578;DHT22;57623;53.608;10.004;2023-05-07T12:38:38;14.80;99.90
1578;DHT22;57623;53.608;10.004;2023-05-07T12:41:07;14.90;99.90
1578;DHT22;57623;53.608;10.004;2023-05-07T12:43:36;15.00;99.90
1578;DHT22;57623;53.608;10.004;2023-05-07T12:46:06;15.10;99.90
1578;DHT22;57623;53.608;10.004;2023-05-07T12:48:37;15.20;99.90
1578;DHT22;57623;53.608;10.004;2023-05-07T12:51:05;15.40;99.90
1578;DHT22;57623;53.608;10.004;2023-05-07T12:53:40;15.50;99.90
1578;DHT22;57623;53.608;10.004;2023-05-07T12:56:09;15.50;99.90
1578;DHT22;57623;53.608;10.004;2023-05-07T12:58:37;15.50;99.90
1578;DHT22;57623;53.608;10.004;2023-05-07T13:01:06;15.50;99.90
1578;DHT22;57623;53.608;10.004;2023-05-07T13:03:37;15.60;99.90
1578;DHT22;57623;53.608;10.004;2023-05-07T13:06:09;15.70;99.90
1578;DHT22;57623;53.608;10.004;2023-05-07T13:08:41;15.80;99.90
1578;DHT22;57623;53.608;10.004;2023-05-07T13:11:11;15.80;99.90
1578;DHT22;57623;53.608;10.004;2023-05-07T13:13:40;15.70;99.90
1578;DHT22;57623;53.608;10.004;2023-05-07T13:16:10;15.70;99.90
1578;DHT22;57623;53.608;10.004;2023-05-07T13:18:39;15.80;99.90
1578;DHT22;57623;53.608;10.004;2023-05-07T13:21:10;15.90;99.90
1578;DHT22;57623;53.608;10.004;2023-05-07T13:23:41;15.90;99.90
1578;DHT22;57623;53.608;10.004;2023-05-07T13:26:10;16.00;99.90
1578;DHT22;57623;53.608;10.004;2023-05-07T13:28:52;16.20;99.90
1578;DHT22;57623;53.608;10.004;2023-05-07T13:31:20;16.40;99.90
1578;DHT22;57623;53.608;10.004;2023-05-07T13:33:51;16.60;99.90
1578;DHT22;57623;53.608;10.004;2023-05-07T13:36:19;16.90;99.90
1578;DHT22;57623;53.608;10.004;2023-05-07T13:38:48;17.10;99.90
1578;DHT22;57623;53.608;10.004;2023-05-07T13:41:16;17.30;99.90
1578;DHT22;57623;53.608;10.004;2023-05-07T13:43:44;17.40;99.90
1578;DHT22;57623;53.608;10.004;2023-05-07T13:46:12;17.50;99.90
1578;DHT22;57623;53.608;10.004;2023-05-07T13:48:40;17.70;99.90
1578;DHT22;57623;53.608;10.004;2023-05-07T13:51:08;17.70;99.90
1578;DHT22;57623;53.608;10.004;2023-05-07T13:53:36;17.90;99.90
1578;DHT22;57623;53.608;10.004;2023-05-07T13:56:06;18.00;99.90
1578;DHT22;57623;53.608;10.004;2023-05-07T13:58:34;18.10;99.90
1578;DHT22;57623;53.608;10.004;2023-05-07T14:01:14;18.30;99.90
1578;DHT22;57623;53.608;10.004;2023-05-07T14:03:42;18.70;99.90
1578;DHT22;57623;53.608;10.004;2023-05-07T14:06:10;19.10;99.90
1578;DHT22;57623;53.608;10.004;2023-05-07T14:08:38;19.60;99.90
1578;DHT22;57623;53.608;10.004;2023-05-07T14:11:07;20.00;99.90
1578;DHT22;57623;53.608;10.004;2023-05-07T14:13:35;20.40;99.90
1578;DHT22;57623;53.608;10.004;2023-05-07T14:16:04;21.00;99.90
1578;DHT22;57623;53.608;10.004;2023-05-07T14:18:32;21.60;99.90
1578;DHT22;57623;53.608;10.004;2023-05-07T14:21:04;22.10;99.00
1578;DHT22;57623;53.608;10.004;2023-05-07T14:23:34;22.40;99.30
1578;DHT22;57623;53.608;10.004;2023-05-07T14:26:02;22.70;96.20
1578;DHT22;57623;53.608;10.004;2023-05-07T14:28:32;23.00;97.00
1578;DHT22;57623;53.608;10.004;2023-05-07T14:31:02;23.40;91.80
1578;DHT22;57623;53.608;10.004;2023-05-07T14:33:30;24.10;79.10
1578;DHT22;57623;53.608;10.004;2023-05-07T14:35:59;24.90;81.10
1578;DHT22;57623;53.608;10.004;2023-05-07T14:38:26;25.30;69.00
1578;DHT22;57623;53.608;10.004;2023-05-07T14:40:54;25.20;62.30
1578;DHT22;57623;53.608;10.004;2023-05-07T14:43:23;25.10;66.70
1578;DHT22;57623;53.608;10.004;2023-05-07T14:45:52;24.80;64.90
1578;DHT22;57623;53.608;10.004;2023-05-07T14:48:20;24.40;66.50
1578;DHT22;57623;53.608;10.004;2023-05-07T14:50:48;24.00;75.50
1578;DHT22;57623;53.608;10.004;2023-05-07T14:53:16;23.70;76.10
1578;DHT22;57623;53.608;10.004;2023-05-07T14:55:44;23.20;86.70
1578;DHT22;57623;53.608;10.004;2023-05-07T14:58:12;22.80;96.60
1578;DHT22;57623;53.608;10.004;2023-05-07T15:00:40;22.70;92.80
1578;DHT22;57623;53.608;10.004;2023-05-07T15:03:10;22.50;93.40
1578;DHT22;57623;53.608;10.004;2023-05-07T15:05:40;22.20;96.90
1578;DHT22;57623;53.608;10.004;2023-05-07T15:08:08;21.90;99.30
1578;DHT22;57623;53.608;10.004;2023-05-07T15:10:36;21.40;99.90
1578;DHT22;57623;53.608;10.004;2023-05-07T15:13:07;21.00;99.90
1578;DHT22;57623;53.608;10.004;2023-05-07T15:15:40;20.70;99.90
1578;DHT22;57623;53.608;10.004;2023-05-07T15:18:10;20.40;99.90
1578;DHT22;57623;53.608;10.004;2023-05-07T15:20:38;20.20;99.90
1578;DHT22;57623;53.608;10.004;2023-05-07T15:23:07;19.90;99.90
1578;DHT22;57623;53.608;10.004;2023-05-07T15:25:36;19.70;99.90
1578;DHT22;57623;53.608;10.004;2023-05-07T15:28:04;19.50;99.90
1578;DHT22;57623;53.608;10.004;2023-05-07T15:30:32;19.30;99.90
1578;DHT22;57623;53.608;10.004;2023-05-07T15:33:01;19.20;99.90
1578;DHT22;57623;53.608;10.004;2023-05-07T15:35:31;19.10;99.90
1578;DHT22;57623;53.608;10.004;2023-05-07T15:37:58;18.90;99.90
1578;DHT22;57623;53.608;10.004;2023-05-07T15:40:27;18.80;99.90
1578;DHT22;57623;53.608;10.004;2023-05-07T15:42:56;18.70;99.90
1578;DHT22;57623;53.608;10.004;2023-05-07T15:45:24;18.60;99.90
1578;DHT22;57623;53.608;10.004;2023-05-07T15:47:52;18.50;99.90
1578;DHT22;57623;53.608;10.004;2023-05-07T15:50:20;18.40;99.90